createdAt,value
2022-10-13T00:00:29.185Z,95777.56
2022-10-13T00:02:55.886Z,95771.28
2022-10-13T00:05:22.585Z,95786.16
2022-10-13T00:07:49.296Z,95774.34
2022-10-13T00:10:16.113Z,95781.19
2022-10-13T00:12:42.823Z,95763.22
2022-10-13T00:15:10.224Z,95777.56
2022-10-13T00:17:37.155Z,95769.31
2022-10-13T00:20:06.330Z,95767.03
2022-10-13T00:22:33.243Z,95765.00
2022-10-13T00:25:05.155Z,95769.00
2022-10-13T00:27:31.901Z,95759.25
2022-10-13T00:29:59.541Z,95745.16
2022-10-13T00:32:26.235Z,95763.25
2022-10-13T00:34:53.021Z,95758.13
2022-10-13T00:37:19.605Z,95751.00
2022-10-13T00:39:46.278Z,95762.03
2022-10-13T00:42:13.854Z,95757.81
2022-10-13T00:45:04.083Z,95757.88
2022-10-13T00:47:38.827Z,95750.44
2022-10-13T00:50:10.021Z,95755.16
2022-10-13T00:52:37.656Z,95752.28
2022-10-13T00:55:07.829Z,95752.72
2022-10-13T00:57:35.063Z,95751.19
2022-10-13T01:00:04.960Z,95764.66
2022-10-13T01:02:35.676Z,95752.28
2022-10-13T01:05:04.021Z,95749.72
2022-10-13T01:07:31.619Z,95747.28
2022-10-13T01:10:01.489Z,95738.28
2022-10-13T01:12:40.389Z,95748.97
2022-10-13T01:15:14.953Z,95740.94
2022-10-13T01:18:16.721Z,95756.19
2022-10-13T01:20:54.142Z,95754.16
2022-10-13T01:23:29.681Z,95750.44
2022-10-13T01:26:02.506Z,95747.97
2022-10-13T01:28:55.498Z,95757.63
2022-10-13T01:31:35.343Z,95743.97
2022-10-13T01:34:07.867Z,95754.91
2022-10-13T01:36:53.603Z,95753.88
2022-10-13T01:39:27.034Z,95757.03
2022-10-13T01:42:00.969Z,95762.28
2022-10-13T01:44:34.407Z,95756.50
2022-10-13T01:47:02.677Z,95764.31
2022-10-13T01:49:34.375Z,95752.09
2022-10-13T01:52:06.398Z,95739.34
2022-10-13T01:54:33.355Z,95748.50
2022-10-13T01:57:00.161Z,95737.72
2022-10-13T01:59:29.839Z,95737.91
2022-10-13T02:02:05.712Z,95736.81
2022-10-13T02:04:50.784Z,95750.50
2022-10-13T02:07:38.922Z,95745.81
2022-10-13T02:10:23.294Z,95716.13
2022-10-13T02:12:51.041Z,95741.75
2022-10-13T02:15:22.433Z,95738.88
2022-10-13T02:17:51.288Z,95738.94
2022-10-13T02:20:20.211Z,95737.41
2022-10-13T02:22:49.145Z,95730.19
2022-10-13T02:25:15.778Z,95717.84
2022-10-13T02:27:42.439Z,95730.91
2022-10-13T02:30:09.789Z,95720.56
2022-10-13T02:32:36.447Z,95729.22
2022-10-13T02:35:03.333Z,95718.00
2022-10-13T02:37:29.996Z,95721.25
2022-10-13T02:39:56.736Z,95709.38
2022-10-13T02:42:23.624Z,95720.13
2022-10-13T02:44:50.402Z,95716.13
2022-10-13T02:47:17.176Z,95722.28
2022-10-13T02:49:43.888Z,95715.81
2022-10-13T02:52:10.734Z,95717.34
2022-10-13T02:54:37.338Z,95714.19
2022-10-13T02:57:04.072Z,95713.44
2022-10-13T02:59:30.813Z,95716.13
2022-10-13T03:01:58.415Z,95715.97
2022-10-13T03:04:25.513Z,95716.19
2022-10-13T03:06:52.225Z,95727.13
2022-10-13T03:09:18.857Z,95721.59
2022-10-13T03:11:45.512Z,95720.44
2022-10-13T03:14:12.389Z,95731.44
2022-10-13T03:16:39.117Z,95727.78
2022-10-13T03:19:05.956Z,95721.16
2022-10-13T03:21:32.632Z,95728.81
2022-10-13T03:23:59.517Z,95717.50
2022-10-13T03:26:26.165Z,95723.91
2022-10-13T03:28:53.157Z,95733.03
2022-10-13T03:31:20.055Z,95723.31
2022-10-13T03:33:46.777Z,95722.28
2022-10-13T03:36:13.660Z,95727.56
2022-10-13T03:38:40.703Z,95724.56
2022-10-13T03:41:12.639Z,95721.41
2022-10-13T03:43:40.503Z,95726.50
2022-10-13T03:46:07.980Z,95731.16
2022-10-13T03:48:36.004Z,95717.91
2022-10-13T03:51:08.306Z,95730.94
2022-10-13T03:53:34.980Z,95728.44
2022-10-13T03:56:01.880Z,95728.56
2022-10-13T03:58:29.191Z,95733.44
2022-10-13T04:00:56.317Z,95728.34
2022-10-13T04:03:24.357Z,95728.72
2022-10-13T04:05:51.244Z,95725.88
2022-10-13T04:08:17.985Z,95725.88
2022-10-13T04:10:44.584Z,95714.91
2022-10-13T04:13:11.267Z,95716.16
2022-10-13T04:15:41.148Z,95706.75
2022-10-13T04:18:08.502Z,95723.78
2022-10-13T04:20:39.985Z,95720.84
2022-10-13T04:23:07.397Z,95718.00
2022-10-13T04:25:38.550Z,95724.47
2022-10-13T04:28:07.318Z,95716.94
2022-10-13T04:30:35.051Z,95724.50
2022-10-13T04:33:01.799Z,95724.63
2022-10-13T04:35:28.853Z,95727.91
2022-10-13T04:37:57.997Z,95724.00
2022-10-13T04:40:26.006Z,95711.06
2022-10-13T04:42:52.653Z,95725.63
2022-10-13T04:45:19.365Z,95723.53
2022-10-13T04:47:45.989Z,95718.94
2022-10-13T04:50:12.737Z,95712.31
2022-10-13T04:52:39.305Z,95719.22
2022-10-13T04:55:06.499Z,95736.09
2022-10-13T04:57:33.302Z,95736.53
2022-10-13T05:00:00.294Z,95734.09
2022-10-13T05:02:27.011Z,95716.16
2022-10-13T05:04:53.659Z,95730.53
2022-10-13T05:07:20.313Z,95745.22
2022-10-13T05:09:46.924Z,95728.91
2022-10-13T05:12:13.632Z,95736.47
2022-10-13T05:14:40.336Z,95743.63
2022-10-13T05:17:07.180Z,95750.50
2022-10-13T05:19:33.957Z,95730.75
2022-10-13T05:22:00.702Z,95733.13
2022-10-13T05:24:39.053Z,95757.16
2022-10-13T05:27:08.891Z,95762.41
2022-10-13T05:29:35.937Z,95753.78
2022-10-13T05:32:02.935Z,95764.75
2022-10-13T05:34:29.512Z,95768.06
2022-10-13T05:36:56.206Z,95763.13
2022-10-13T05:39:23.198Z,95766.53
2022-10-13T05:41:49.920Z,95771.63
2022-10-13T05:44:17.563Z,95783.41
2022-10-13T05:46:44.609Z,95770.38
2022-10-13T05:49:11.339Z,95776.38
2022-10-13T05:51:45.971Z,95767.22
2022-10-13T05:54:33.948Z,95782.56
2022-10-13T05:57:04.950Z,95791.84
2022-10-13T05:59:36.087Z,95784.72
2022-10-13T06:02:04.354Z,95789.28
2022-10-13T06:04:36.986Z,95777.94
2022-10-13T06:07:04.130Z,95778.44
2022-10-13T06:09:35.833Z,95759.16
2022-10-13T06:12:02.449Z,95777.56
2022-10-13T06:14:29.126Z,95780.88
2022-10-13T06:16:56.198Z,95768.38
2022-10-13T06:19:23.100Z,95776.97
2022-10-13T06:21:49.703Z,95772.00
2022-10-13T06:24:16.440Z,95778.69
2022-10-13T06:26:43.014Z,95760.88
2022-10-13T06:29:09.804Z,95776.66
2022-10-13T06:31:36.442Z,95770.78
2022-10-13T06:34:03.141Z,95764.63
2022-10-13T06:36:29.748Z,95771.81
2022-10-13T06:38:56.451Z,95769.28
2022-10-13T06:41:23.467Z,95763.31
2022-10-13T06:43:50.149Z,95762.75
2022-10-13T06:46:16.926Z,95756.44
2022-10-13T06:48:43.659Z,95759.03
2022-10-13T06:51:11.610Z,95758.63
2022-10-13T06:53:38.275Z,95757.63
2022-10-13T06:56:07.010Z,95754.34
2022-10-13T06:58:35.387Z,95749.63
2022-10-13T07:01:03.024Z,95748.88
2022-10-13T07:03:29.791Z,95748.72
2022-10-13T07:06:01.527Z,95747.75
2022-10-13T07:08:28.300Z,95750.00
2022-10-13T07:10:54.993Z,95741.09
2022-10-13T07:15:53.215Z,95737.09
2022-10-13T07:18:19.868Z,95742.50
2022-10-13T07:20:46.424Z,95731.66
2022-10-13T07:23:13.152Z,95745.75
2022-10-13T07:25:39.866Z,95745.19
2022-10-13T07:28:06.454Z,95746.25
2022-10-13T07:30:33.138Z,95747.69
2022-10-13T07:33:00.325Z,95746.41
2022-10-13T07:35:30.455Z,95755.00
2022-10-13T07:37:57.797Z,95746.38
2022-10-13T07:40:25.002Z,95721.50
2022-10-13T07:42:51.664Z,95724.66
2022-10-13T07:45:18.475Z,95736.69
2022-10-13T07:47:45.136Z,95741.41
2022-10-13T07:50:12.047Z,95737.00
2022-10-13T07:52:39.792Z,95740.31
2022-10-13T07:55:07.230Z,95738.63
2022-10-13T07:57:34.100Z,95730.13
2022-10-13T08:00:03.529Z,95718.13
2022-10-13T08:02:30.600Z,95719.66
2022-10-13T08:04:57.201Z,95724.84
2022-10-13T08:07:24.071Z,95713.25
2022-10-13T08:09:50.637Z,95722.97
2022-10-13T08:12:17.584Z,95711.56
2022-10-13T08:14:44.718Z,95714.13
2022-10-13T08:17:11.491Z,95727.25
2022-10-13T08:19:38.161Z,95705.38
2022-10-13T08:22:09.503Z,95708.94
2022-10-13T08:24:37.034Z,95714.97
2022-10-13T08:27:03.916Z,95713.41
2022-10-13T08:29:30.629Z,95713.41
2022-10-13T08:31:57.419Z,95706.75
2022-10-13T08:34:24.653Z,95696.44
2022-10-13T08:36:54.585Z,95708.28
2022-10-13T08:39:22.702Z,95701.38
2022-10-13T08:41:49.725Z,95697.72
2022-10-13T08:47:18.541Z,95688.38
2022-10-13T08:49:46.347Z,95693.13
2022-10-13T08:52:25.533Z,95686.88
2022-10-13T08:54:54.915Z,95665.53
2022-10-13T08:57:22.605Z,95678.47
2022-10-13T08:59:49.963Z,95665.38
2022-10-13T09:02:26.629Z,95684.28
2022-10-13T09:04:54.247Z,95679.09
2022-10-13T09:07:29.657Z,95663.69
2022-10-13T09:09:56.505Z,95665.59
2022-10-13T09:12:25.071Z,95673.47
2022-10-13T09:15:05.817Z,95657.69
2022-10-13T09:17:33.927Z,95663.22
2022-10-13T09:20:06.646Z,95657.53
2022-10-13T09:22:36.395Z,95653.38
2022-10-13T09:25:18.413Z,95639.47
2022-10-13T09:27:58.162Z,95639.84
2022-10-13T09:30:30.692Z,95633.59
2022-10-13T09:33:09.594Z,95644.56
2022-10-13T09:35:37.441Z,95629.16
2022-10-13T09:38:05.934Z,95629.38
2022-10-13T09:40:33.897Z,95631.84
2022-10-13T09:43:02.339Z,95641.59
2022-10-13T09:45:31.094Z,95640.34
2022-10-13T09:48:04.885Z,95626.16
2022-10-13T09:50:35.463Z,95629.03
2022-10-13T09:53:38.396Z,95633.44
2022-10-13T09:56:31.022Z,95627.00
2022-10-13T09:59:36.315Z,95621.22
2022-10-13T10:02:34.024Z,95612.56
2022-10-13T10:05:07.893Z,95609.44
2022-10-13T10:07:34.602Z,95606.00
2022-10-13T10:10:05.702Z,95605.06
2022-10-13T10:12:37.510Z,95601.53
2022-10-13T10:15:17.290Z,95590.31
2022-10-13T10:17:52.689Z,95586.06
2022-10-13T10:20:31.419Z,95590.13
2022-10-13T10:23:07.770Z,95588.97
2022-10-13T10:25:42.766Z,95592.03
2022-10-13T10:28:15.459Z,95577.69
2022-10-13T10:31:21.095Z,95592.75
2022-10-13T10:34:13.613Z,95582.91
2022-10-13T10:36:57.447Z,95563.03
2022-10-13T10:39:36.880Z,95567.03
2022-10-13T10:42:13.609Z,95575.59
2022-10-13T10:44:43.596Z,95565.16
2022-10-13T10:47:43.260Z,95555.47
2022-10-13T10:50:16.104Z,95554.22
2022-10-13T10:53:13.740Z,95550.19
2022-10-13T10:55:53.772Z,95535.75
2022-10-13T10:58:38.906Z,95540.56
2022-10-13T11:01:11.616Z,95534.03
2022-10-13T11:03:54.128Z,95527.47
2022-10-13T11:06:20.766Z,95535.50
2022-10-13T11:08:49.600Z,95533.50
2022-10-13T11:11:26.569Z,95516.19
2022-10-13T11:13:55.707Z,95496.91
2022-10-13T11:16:32.943Z,95517.44
2022-10-13T11:19:22.639Z,95515.91
2022-10-13T11:21:55.311Z,95511.41
2022-10-13T11:24:34.277Z,95507.91
2022-10-13T11:27:16.213Z,95499.81
2022-10-13T11:29:46.671Z,95500.47
2022-10-13T11:32:25.803Z,95493.59
2022-10-13T11:35:02.785Z,95482.69
2022-10-13T11:37:35.774Z,95485.78
2022-10-13T11:40:08.499Z,95473.31
2022-10-13T11:42:56.896Z,95468.44
2022-10-13T11:45:40.520Z,95470.84
2022-10-13T11:48:29.262Z,95466.88
2022-10-13T11:51:32.536Z,95466.06
2022-10-13T11:54:08.464Z,95469.84
2022-10-13T11:56:48.340Z,95464.50
2022-10-13T11:59:21.100Z,95457.81
2022-10-13T12:01:48.193Z,95458.97
2022-10-13T12:04:15.542Z,95461.09
2022-10-13T12:06:42.385Z,95456.56
2022-10-13T12:09:20.812Z,95454.91
2022-10-13T12:11:57.476Z,95456.69
2022-10-13T12:14:31.285Z,95442.88
2022-10-13T12:17:00.060Z,95453.94
2022-10-13T12:19:29.783Z,95438.63
2022-10-13T12:21:59.085Z,95446.44
2022-10-13T12:24:29.263Z,95437.75
2022-10-13T12:26:57.008Z,95442.50
2022-10-13T12:29:27.607Z,95452.09
2022-10-13T12:31:55.030Z,95435.75
2022-10-13T12:34:32.826Z,95437.66
2022-10-13T12:37:03.133Z,95433.63
2022-10-13T12:39:32.723Z,95428.88
2022-10-13T12:42:02.801Z,95437.78
2022-10-13T12:44:32.559Z,95432.81
2022-10-13T12:47:02.035Z,95427.59
2022-10-13T12:49:34.352Z,95416.56
2022-10-13T12:52:16.945Z,95418.59
2022-10-13T12:54:52.581Z,95407.56
2022-10-13T12:57:37.631Z,95415.97
2022-10-13T13:00:19.805Z,95414.84
2022-10-13T13:02:58.762Z,95411.81
2022-10-13T13:05:37.337Z,95423.44
2022-10-13T13:08:06.508Z,95415.34
2022-10-13T13:10:35.369Z,95401.50
2022-10-13T13:13:15.184Z,95392.25
2022-10-13T13:15:41.948Z,95399.75
2022-10-13T13:18:26.838Z,95394.38
2022-10-13T13:20:54.459Z,95406.38
2022-10-13T13:23:22.449Z,95406.47
2022-10-13T13:26:04.499Z,95392.94
2022-10-13T13:28:34.278Z,95392.78
2022-10-13T13:31:00.998Z,95396.66
2022-10-13T13:33:27.885Z,95399.69
2022-10-13T13:35:54.698Z,95402.31
2022-10-13T13:38:21.323Z,95399.25
2022-10-13T13:40:48.111Z,95402.59
2022-10-13T13:43:14.711Z,95388.03
2022-10-13T13:45:41.522Z,95400.28
2022-10-13T13:48:10.963Z,95399.16
2022-10-13T13:50:37.933Z,95389.25
2022-10-13T13:53:06.452Z,95388.94
2022-10-13T13:55:33.130Z,95395.28
2022-10-13T13:58:00.160Z,95375.28
2022-10-13T14:00:27.126Z,95376.69
2022-10-13T14:02:53.781Z,95372.66
2022-10-13T14:05:20.482Z,95379.16
2022-10-13T14:07:47.175Z,95377.81
2022-10-13T14:10:14.221Z,95377.69
2022-10-13T14:12:41.068Z,95386.25
2022-10-13T14:15:08.612Z,95367.72
2022-10-13T14:17:35.206Z,95375.03
2022-10-13T14:20:01.889Z,95368.53
2022-10-13T14:22:28.593Z,95375.78
2022-10-13T14:24:55.289Z,95374.00
2022-10-13T14:27:22.023Z,95372.44
2022-10-13T14:29:48.663Z,95375.22
2022-10-13T14:32:15.766Z,95375.50
2022-10-13T14:34:42.367Z,95383.06
2022-10-13T14:37:09.085Z,95381.88
2022-10-13T14:39:35.632Z,95376.09
2022-10-13T14:42:02.244Z,95374.69
2022-10-13T14:44:29.019Z,95371.19
2022-10-13T14:46:55.792Z,95379.31
2022-10-13T14:49:22.439Z,95359.28
2022-10-13T14:51:49.075Z,95376.84
2022-10-13T14:54:16.244Z,95382.69
2022-10-13T14:56:44.669Z,95379.69
2022-10-13T14:59:13.199Z,95377.69
2022-10-13T15:01:43.586Z,95385.69
2022-10-13T15:04:11.227Z,95386.91
2022-10-13T15:06:40.099Z,95384.88
2022-10-13T15:11:36.172Z,95379.31
2022-10-13T15:14:03.196Z,95387.00
2022-10-13T15:16:33.437Z,95383.16
2022-10-13T15:19:01.161Z,95382.66
2022-10-13T15:21:27.930Z,95374.78
2022-10-13T15:23:54.504Z,95381.28
2022-10-13T15:26:21.790Z,95379.50
2022-10-13T15:28:51.398Z,95394.53
2022-10-13T15:31:19.465Z,95365.19
2022-10-13T15:33:48.250Z,95386.63
2022-10-13T15:36:15.001Z,95373.88
2022-10-13T15:38:42.224Z,95381.63
2022-10-13T15:41:10.416Z,95375.31
2022-10-13T15:43:37.560Z,95360.97
2022-10-13T15:46:06.985Z,95370.75
2022-10-13T15:48:34.893Z,95369.78
2022-10-13T15:51:09.029Z,95369.50
2022-10-13T15:53:35.930Z,95375.91
2022-10-13T15:56:03.023Z,95376.69
2022-10-13T15:58:29.742Z,95383.97
2022-10-13T16:00:56.693Z,95386.38
2022-10-13T16:03:24.475Z,95390.84
2022-10-13T16:05:51.208Z,95377.66
2022-10-13T16:08:17.864Z,95375.69
2022-10-13T16:10:44.740Z,95382.53
2022-10-13T16:13:14.311Z,95365.94
2022-10-13T16:15:42.357Z,95372.09
2022-10-13T16:18:09.218Z,95381.53
2022-10-13T16:20:38.059Z,95371.44
2022-10-13T16:23:05.198Z,95386.69
2022-10-13T16:25:32.299Z,95376.59
2022-10-13T16:28:01.025Z,95386.19
2022-10-13T16:30:30.361Z,95393.16
2022-10-13T16:32:57.590Z,95389.88
2022-10-13T16:35:24.220Z,95381.56
2022-10-13T16:37:50.865Z,95384.66
2022-10-13T16:40:18.006Z,95391.31
2022-10-13T16:42:45.465Z,95395.34
2022-10-13T16:45:13.201Z,95401.53
2022-10-13T16:47:40.265Z,95396.72
2022-10-13T16:50:09.794Z,95384.94
2022-10-13T16:52:37.994Z,95362.53
2022-10-13T16:55:06.015Z,95396.03
2022-10-13T16:57:33.108Z,95381.00
2022-10-13T17:00:00.299Z,95394.59
2022-10-13T17:02:26.968Z,95395.56
2022-10-13T17:04:53.602Z,95398.09
2022-10-13T17:07:20.666Z,95398.41
2022-10-13T17:09:47.832Z,95390.13
2022-10-13T17:12:14.771Z,95380.88
2022-10-13T17:14:41.573Z,95396.69
2022-10-13T17:17:08.190Z,95395.38
2022-10-13T17:19:34.997Z,95389.88
2022-10-13T17:22:01.680Z,95392.91
2022-10-13T17:24:29.926Z,95390.03
2022-10-13T17:26:56.682Z,95395.13
2022-10-13T17:29:23.670Z,95373.34
2022-10-13T17:31:50.688Z,95386.88
2022-10-13T17:34:17.316Z,95394.03
2022-10-13T17:36:44.255Z,95388.00
2022-10-13T17:39:11.944Z,95390.25
2022-10-13T17:41:38.622Z,95370.97
2022-10-13T17:44:05.283Z,95383.72
2022-10-13T17:46:37.865Z,95367.88
2022-10-13T17:49:10.616Z,95392.66
2022-10-13T17:51:37.913Z,95390.31
2022-10-13T17:54:05.393Z,95370.97
2022-10-13T17:56:32.273Z,95384.63
2022-10-13T17:59:00.568Z,95385.56
2022-10-13T18:01:31.699Z,95388.94
2022-10-13T18:04:04.558Z,95379.19
2022-10-13T18:06:38.479Z,95380.81
2022-10-13T18:09:12.202Z,95390.56
2022-10-13T18:11:39.232Z,95405.81
2022-10-13T18:14:07.065Z,95395.81
2022-10-13T18:16:34.697Z,95403.41
2022-10-13T18:19:01.750Z,95399.47
2022-10-13T18:21:29.293Z,95399.47
2022-10-13T18:24:01.251Z,95390.25
2022-10-13T18:26:32.306Z,95403.50
2022-10-13T18:28:59.309Z,95402.69
2022-10-13T18:31:28.951Z,95408.06
2022-10-13T18:33:56.990Z,95406.00
2022-10-13T18:36:29.401Z,95412.72
2022-10-13T18:39:11.856Z,95415.47
2022-10-13T18:41:39.061Z,95404.78
2022-10-13T18:44:06.523Z,95401.84
2022-10-13T18:46:33.708Z,95398.94
2022-10-13T18:49:00.824Z,95408.03
2022-10-13T18:51:34.728Z,95418.41
2022-10-13T18:54:02.797Z,95408.13
2022-10-13T18:56:31.222Z,95407.44
2022-10-13T18:59:00.599Z,95411.03
2022-10-13T19:01:30.691Z,95412.81
2022-10-13T19:03:58.014Z,95411.59
2022-10-13T19:06:27.387Z,95413.09
2022-10-13T19:09:00.808Z,95420.38
2022-10-13T19:11:29.272Z,95407.53
2022-10-13T19:13:56.324Z,95414.97
2022-10-13T19:16:24.581Z,95411.75
2022-10-13T19:18:52.022Z,95397.25
2022-10-13T19:21:20.589Z,95393.28
2022-10-13T19:23:47.444Z,95402.84
2022-10-13T19:26:26.223Z,95393.91
2022-10-13T19:28:58.477Z,95406.88
2022-10-13T19:31:27.905Z,95390.84
2022-10-13T19:33:55.324Z,95395.56
2022-10-13T19:36:33.284Z,95399.63
2022-10-13T19:39:01.033Z,95387.16
2022-10-13T19:41:29.795Z,95376.75
2022-10-13T19:43:56.423Z,95389.97
2022-10-13T19:46:23.601Z,95388.72
2022-10-13T19:48:50.412Z,95392.63
2022-10-13T19:51:17.359Z,95397.47
2022-10-13T19:53:47.129Z,95400.03
2022-10-13T19:56:26.595Z,95386.81
2022-10-13T19:58:54.217Z,95387.34
2022-10-13T20:01:22.088Z,95394.44
2022-10-13T20:03:49.365Z,95400.50
2022-10-13T20:06:17.273Z,95401.59
2022-10-13T20:08:45.556Z,95396.31
2022-10-13T20:11:17.279Z,95393.84
2022-10-13T20:13:47.665Z,95392.13
2022-10-13T20:16:17.307Z,95386.19
2022-10-13T20:18:44.502Z,95401.84
2022-10-13T20:21:12.751Z,95395.97
2022-10-13T20:23:40.942Z,95406.25
2022-10-13T20:26:09.847Z,95397.28
2022-10-13T20:28:42.865Z,95390.34
2022-10-13T20:31:12.896Z,95393.56
2022-10-13T20:33:40.052Z,95381.59
2022-10-13T20:36:09.268Z,95381.00
2022-10-13T20:38:36.319Z,95398.63
2022-10-13T20:41:06.672Z,95378.91
2022-10-13T20:43:37.109Z,95380.75
2022-10-13T20:46:06.955Z,95380.69
2022-10-13T20:49:05.219Z,95366.78
2022-10-13T20:51:25.134Z,95373.59
2022-10-13T20:53:52.238Z,95366.25
2022-10-13T20:56:25.271Z,95374.94
2022-10-13T20:58:52.372Z,95370.88
2022-10-13T21:01:20.965Z,95354.91
2022-10-13T21:03:54.331Z,95371.72
2022-10-13T21:06:22.441Z,95366.72
2022-10-13T21:08:49.152Z,95368.91
2022-10-13T21:11:17.717Z,95353.38
2022-10-13T21:13:45.169Z,95361.25
2022-10-13T21:16:18.076Z,95368.91
2022-10-13T21:18:49.507Z,95363.09
2022-10-13T21:21:21.525Z,95356.59
2022-10-13T21:23:53.014Z,95357.53
2022-10-13T21:26:22.133Z,95359.34
2022-10-13T21:28:49.967Z,95350.09
2022-10-13T21:31:18.593Z,95344.34
2022-10-13T21:33:45.589Z,95340.84
2022-10-13T21:36:18.078Z,95346.41
2022-10-13T21:38:45.886Z,95345.19
2022-10-13T21:41:14.331Z,95332.72
2022-10-13T21:43:41.471Z,95328.63
2022-10-13T21:46:18.308Z,95330.59
2022-10-13T21:48:46.400Z,95315.09
2022-10-13T21:51:19.981Z,95331.75
2022-10-13T21:53:51.812Z,95332.03
2022-10-13T21:56:19.209Z,95330.69
2022-10-13T21:58:46.415Z,95328.25
2022-10-13T22:01:13.224Z,95318.16
2022-10-13T22:03:41.660Z,95322.97
2022-10-13T22:06:18.538Z,95325.41
2022-10-13T22:08:47.605Z,95308.47
2022-10-13T22:11:14.842Z,95312.06
2022-10-13T22:13:41.969Z,95320.19
2022-10-13T22:16:12.700Z,95315.91
2022-10-13T22:18:39.556Z,95314.59
2022-10-13T22:21:08.881Z,95323.97
2022-10-13T22:23:35.637Z,95320.19
2022-10-13T22:26:02.427Z,95333.38
2022-10-13T22:28:32.324Z,95340.38
2022-10-13T22:31:06.633Z,95335.38
2022-10-13T22:33:35.193Z,95337.78
2022-10-13T22:36:07.444Z,95329.31
2022-10-13T22:38:33.975Z,95328.53
2022-10-13T22:41:07.753Z,95318.59
2022-10-13T22:43:35.754Z,95324.63
2022-10-13T22:46:03.034Z,95310.88
2022-10-13T22:48:29.725Z,95319.94
2022-10-13T22:50:56.797Z,95319.00
2022-10-13T22:53:23.794Z,95320.53
2022-10-13T22:55:50.485Z,95316.75
2022-10-13T22:58:17.804Z,95317.78
2022-10-13T23:00:44.485Z,95308.53
2022-10-13T23:03:14.062Z,95307.59
2022-10-13T23:05:42.614Z,95306.56
2022-10-13T23:08:11.192Z,95304.75
2022-10-13T23:10:37.864Z,95315.06
2022-10-13T23:13:05.600Z,95314.13
2022-10-13T23:15:32.308Z,95306.66
2022-10-13T23:17:59.012Z,95311.09
2022-10-13T23:20:25.610Z,95314.13
2022-10-13T23:22:52.183Z,95307.13
2022-10-13T23:25:18.748Z,95310.91
2022-10-13T23:27:45.595Z,95318.50
2022-10-13T23:30:12.845Z,95314.13
2022-10-13T23:32:39.588Z,95312.41
2022-10-13T23:35:06.732Z,95322.84
2022-10-13T23:37:33.405Z,95310.44
2022-10-13T23:39:59.950Z,95323.63
2022-10-13T23:42:26.560Z,95313.84
2022-10-13T23:44:53.211Z,95328.78
2022-10-13T23:47:20.408Z,95329.53
2022-10-13T23:49:47.150Z,95330.94
2022-10-13T23:52:13.739Z,95315.16
2022-10-13T23:54:40.537Z,95319.81
2022-10-13T23:57:07.603Z,95334.50
2022-10-13T23:59:34.300Z,95327.38
